Time;durP1;ratioP1;P1;durP2;ratioP2;P2;SDS_P1;SDS_P2;PMS_P1;PMS_P2;Temp;Humidity;BMP_temperature;BMP_pressure;BME280_temperature;BME280_humidity;BME280_pressure;Samples;Min_cycle;Max_cycle;Signal;HPM_P1;HPM_P2
2022/06/17 00:00:51;;;;;;;44.70;13.25;;;;;;;15.29;58.38;99356.88;4884392;29;20053;-86
2022/06/17 00:03:19;;;;;;;38.95;12.38;;;;;;;15.35;58.46;99376.75;4861721;29;20128;-86
2022/06/17 00:05:45;;;;;;;41.95;12.63;;;;;;;15.35;59.12;99380.28;4858753;29;20112;-88
2022/06/17 00:08:18;;;;;;;37.95;12.57;;;;;;;15.15;58.90;99362.72;4858591;29;20504;-86
2022/06/17 00:10:47;;;;;;;36.15;12.85;;;;;;;15.18;59.53;99364.00;4862152;29;20140;-87
2022/06/17 00:13:16;;;;;;;52.45;13.32;;;;;;;14.97;59.24;99317.28;4858370;29;20072;-87
2022/06/17 00:15:45;;;;;;;43.53;13.27;;;;;;;15.22;59.80;99378.66;4858470;29;20515;-87
2022/06/17 00:18:13;;;;;;;46.58;12.98;;;;;;;14.82;60.04;99320.69;4858202;29;20064;-88
2022/06/17 00:20:39;;;;;;;37.30;12.05;;;;;;;14.90;60.19;99353.63;4856119;29;20100;-91
2022/06/17 00:23:13;;;;;;;39.85;11.32;;;;;;;14.94;60.29;99362.00;4896041;29;20533;-89
2022/06/17 00:25:42;;;;;;;31.45;10.60;;;;;;;14.91;60.54;99357.19;4896005;29;20132;-89
2022/06/17 00:28:19;;;;;;;44.50;10.63;;;;;;;14.76;60.66;99348.41;4880572;29;20144;-89
2022/06/17 00:30:47;;;;;;;29.83;10.15;;;;;;;14.90;61.18;99377.56;4880121;29;20044;-89
2022/06/17 00:33:15;;;;;;;34.35;10.55;;;;;;;14.57;61.43;99337.94;4880441;29;20148;-90
2022/06/17 00:35:45;;;;;;;29.42;10.75;;;;;;;14.52;61.81;99338.13;4879860;29;20051;-90
2022/06/17 00:38:14;;;;;;;31.80;9.93;;;;;;;14.59;61.74;99354.09;4880017;29;20574;-89
2022/06/17 00:40:43;;;;;;;27.38;9.43;;;;;;;14.48;61.75;99348.19;4880242;29;20140;-89
2022/06/17 00:43:27;;;;;;;26.42;9.90;;;;;;;14.52;62.02;99353.84;4877693;29;20470;-90
2022/06/17 00:46:05;;;;;;;34.65;9.85;;;;;;;14.62;61.76;99369.94;4860543;29;20064;-89
2022/06/17 00:48:38;;;;;;;36.33;10.68;;;;;;;14.60;61.73;99372.19;4861279;29;20044;-89
2022/06/17 00:51:20;;;;;;;28.13;10.35;;;;;;;14.70;62.22;99387.47;4860874;29;20049;-89
2022/06/17 00:53:53;;;;;;;28.63;10.35;;;;;;;14.63;62.05;99378.97;4878189;29;20059;-89
2022/06/17 00:56:32;;;;;;;30.85;9.93;;;;;;;14.67;61.90;99400.00;4895336;29;20487;-89
2022/06/17 00:59:08;;;;;;;37.92;10.30;;;;;;;14.47;62.16;99367.75;4913247;29;20146;-88
2022/06/17 01:01:47;;;;;;;30.52;9.65;;;;;;;14.41;62.50;99358.13;4933869;29;20573;-90
2022/06/17 01:04:25;;;;;;;38.58;9.50;;;;;;;14.44;62.05;99379.47;4915892;29;20469;-89
2022/06/17 01:07:06;;;;;;;29.35;9.20;;;;;;;14.59;62.70;99400.06;4949867;29;20043;-89
2022/06/17 01:12:26;;;;;;;25.70;8.98;;;;;;;14.54;62.40;99410.13;4949794;29;20473;-90
2022/06/17 01:14:53;;;;;;;33.15;9.98;;;;;;;14.37;62.54;99382.75;4916245;29;20505;-89
2022/06/17 01:17:21;;;;;;;33.65;9.50;;;;;;;14.35;62.60;99385.03;4915060;29;20510;-87
2022/06/17 01:19:55;;;;;;;43.22;9.10;;;;;;;14.49;62.58;99406.75;4915007;29;20048;-88
2022/06/17 01:22:42;;;;;;;40.53;8.57;;;;;;;14.48;62.61;99405.94;4930912;29;20107;-89
2022/06/17 01:25:26;;;;;;;39.88;9.73;;;;;;;14.22;62.53;99359.41;4915023;29;20055;-88
2022/06/17 01:28:00;;;;;;;29.08;9.05;;;;;;;14.53;62.47;99396.72;4916083;29;20092;-89
2022/06/17 01:30:43;;;;;;;36.67;10.25;;;;;;;14.38;62.23;99384.34;4930638;29;20510;-88
2022/06/17 01:33:13;;;;;;;30.92;9.45;;;;;;;14.52;62.38;99395.91;4930744;29;20410;-88
2022/06/17 01:36:15;;;;;;;35.35;9.07;;;;;;;14.42;62.62;99390.00;4930188;29;20043;-89
2022/06/17 01:38:47;;;;;;;37.75;9.38;;;;;;;14.24;62.45;99362.66;4949492;29;20475;-90
2022/06/17 01:41:17;;;;;;;28.15;8.93;;;;;;;14.38;62.28;99372.56;4949296;29;20043;-87
2022/06/17 01:43:52;;;;;;;44.50;9.43;;;;;;;14.46;62.16;99380.72;4933539;29;20040;-88
2022/06/17 01:46:26;;;;;;;33.65;9.73;;;;;;;14.55;62.25;99395.22;4932598;29;20076;-87
2022/06/17 01:49:03;;;;;;;41.65;9.45;;;;;;;14.54;61.79;99382.63;4933528;29;20044;-88
2022/06/17 01:51:33;;;;;;;45.47;10.45;;;;;;;14.52;61.78;99367.59;4934699;29;20103;-88
2022/06/17 01:54:05;;;;;;;38.22;10.52;;;;;;;14.70;61.76;99393.00;4933305;29;20118;-88
2022/06/17 01:56:36;;;;;;;33.92;9.73;;;;;;;14.63;61.54;99373.47;4902962;29;20238;-88
2022/06/17 01:59:12;;;;;;;33.85;9.98;;;;;;;14.77;61.51;99388.56;4940356;29;20114;-88
2022/06/17 02:01:43;;;;;;;35.97;9.95;;;;;;;14.72;61.36;99382.47;4956113;29;20130;-87
2022/06/17 02:04:20;;;;;;;39.30;10.05;;;;;;;14.74;61.25;99369.97;4941166;29;20050;-87
2022/06/17 02:06:52;;;;;;;33.00;10.20;;;;;;;14.92;61.35;99395.38;4957408;29;20126;-87
2022/06/17 02:09:20;;;;;;;30.05;8.57;;;;;;;14.80;61.19;99379.63;4924540;29;20074;-87
2022/06/17 02:11:49;;;;;;;31.23;9.10;;;;;;;14.65;61.26;99355.50;4940479;29;20572;-88
2022/06/17 02:14:19;;;;;;;28.63;9.63;;;;;;;14.90;61.61;99389.41;4924717;29;20078;-88
2022/06/17 02:17:10;;;;;;;51.58;9.68;;;;;;;15.02;61.63;99407.91;4955529;29;20409;-87
2022/06/17 02:20:02;;;;;;;37.03;10.10;;;;;;;14.94;61.47;99398.59;4928939;29;20055;-89
2022/06/17 02:22:32;;;;;;;33.55;9.75;;;;;;;14.91;61.36;99381.94;4940148;29;20070;-88
2022/06/17 02:25:03;;;;;;;32.75;9.95;;;;;;;15.08;61.55;99412.03;4940205;29;20580;-88
2022/06/17 02:27:33;;;;;;;42.25;10.13;;;;;;;14.86;61.77;99368.38;4955663;29;20050;-89
2022/06/17 02:30:01;;;;;;;37.67;10.88;;;;;;;15.01;61.69;99379.56;4924478;29;20050;-89
2022/06/17 02:32:31;;;;;;;33.67;10.10;;;;;;;15.31;61.33;99406.91;4939704;29;20047;-88
2022/06/17 02:35:02;;;;;;;35.08;9.52;;;;;;;15.37;61.27;99408.31;4956223;29;20122;-88
2022/06/17 02:37:30;;;;;;;43.72;9.60;;;;;;;15.43;60.75;99412.47;4939704;29;20053;-89
2022/06/17 02:40:04;;;;;;;28.13;9.55;;;;;;;15.49;61.14;99413.81;4924095;29;20090;-90
2022/06/17 02:42:38;;;;;;;37.33;10.43;;;;;;;15.26;61.33;99357.56;4940124;29;20051;-90
2022/06/17 02:45:12;;;;;;;55.15;10.13;;;;;;;15.49;60.62;99390.97;4956034;29;20075;-90
2022/06/17 02:47:40;;;;;;;34.95;10.10;;;;;;;15.24;60.74;99340.59;4955642;29;20071;-89
2022/06/17 02:50:07;;;;;;;28.33;9.63;;;;;;;15.64;61.00;99390.28;4923906;29;20074;-89
2022/06/17 02:52:37;;;;;;;33.15;9.18;;;;;;;15.28;60.21;99334.03;4955521;29;20306;-88
2022/06/17 02:55:16;;;;;;;34.67;9.88;;;;;;;15.53;60.34;99367.13;4924050;29;20050;-88
2022/06/17 02:57:46;;;;;;;26.90;9.45;;;;;;;15.89;60.19;99404.06;4939829;29;20057;-89
2022/06/17 03:00:19;;;;;;;39.47;10.02;;;;;;;16.01;60.26;99404.06;4940240;29;20039;-88
2022/06/17 03:02:53;;;;;;;25.27;9.73;;;;;;;15.98;59.11;99386.25;4948694;29;20058;-89
2022/06/17 03:05:32;;;;;;;27.60;9.30;;;;;;;16.04;58.77;99388.78;4940347;29;20050;-90
2022/06/17 03:08:00;;;;;;;21.98;8.43;;;;;;;16.12;58.92;99394.16;4942290;29;20058;-90
2022/06/17 03:10:35;;;;;;;21.95;9.27;;;;;;;16.21;59.21;99385.75;4964046;28;20030;-88
2022/06/17 03:13:16;;;;;;;36.45;9.73;;;;;;;16.28;58.42;99385.16;4947383;29;20102;-88
2022/06/17 03:15:49;;;;;;;36.58;9.40;;;;;;;16.25;58.16;99385.88;4966865;29;20047;-89
2022/06/17 03:18:16;;;;;;;24.75;9.52;;;;;;;16.41;58.47;99412.38;4927700;29;20047;-88
2022/06/17 03:20:45;;;;;;;28.45;10.05;;;;;;;16.16;58.83;99363.97;4957571;29;20058;-88
2022/06/17 03:23:16;;;;;;;37.85;9.45;;;;;;;16.44;59.28;99417.19;4942874;29;20042;-90
2022/06/17 03:26:11;;;;;;;37.95;11.00;;;;;;;16.43;59.13;99406.50;4941857;29;20043;-89
2022/06/17 03:28:45;;;;;;;29.00;9.40;;;;;;;16.28;58.71;99376.91;4949288;28;20051;-88
2022/06/17 03:31:32;;;;;;;32.33;9.95;;;;;;;16.42;58.69;99380.88;4953768;29;20048;-89
2022/06/17 03:34:05;;;;;;;35.67;9.73;;;;;;;16.58;58.63;99416.78;4920096;29;20062;-89
2022/06/17 03:37:08;;;;;;;36.28;11.43;;;;;;;16.57;58.98;99414.41;4935475;29;20047;-88
2022/06/17 03:39:50;;;;;;;29.67;10.10;;;;;;;16.51;59.22;99397.28;4951276;29;20048;-89
2022/06/17 03:42:26;;;;;;;38.78;10.55;;;;;;;16.64;58.68;99409.06;4934924;29;20090;-89
2022/06/17 03:45:11;;;;;;;30.65;10.38;;;;;;;16.71;59.19;99414.00;4923439;29;20047;-87
2022/06/17 03:47:44;;;;;;;36.03;11.07;;;;;;;16.77;58.93;99413.41;4936842;29;20110;-88
2022/06/17 03:50:27;;;;;;;35.42;10.90;;;;;;;16.71;59.22;99378.09;4937649;29;20182;-88
2022/06/17 03:53:00;;;;;;;40.25;10.52;;;;;;;16.81;58.82;99385.91;4943940;29;20097;-89
2022/06/17 03:55:30;;;;;;;49.45;11.38;;;;;;;16.87;58.61;99377.00;4903287;29;20533;-90
2022/06/17 03:57:59;;;;;;;41.80;11.20;;;;;;;16.99;58.39;99381.69;4903240;29;20058;-89
2022/06/17 04:00:42;;;;;;;43.45;11.85;;;;;;;16.98;58.14;99370.97;4903395;29;20047;-89
2022/06/17 04:03:16;;;;;;;49.95;11.40;;;;;;;17.35;58.48;99407.44;4903622;29;20060;-90
2022/06/17 04:05:44;;;;;;;33.25;10.90;;;;;;;17.42;57.68;99399.34;4937323;29;20257;-89
2022/06/17 04:08:13;;;;;;;28.80;10.00;;;;;;;17.57;56.29;99411.56;4922444;29;20043;-89
2022/06/17 04:10:41;;;;;;;33.47;10.18;;;;;;;17.45;57.05;99368.25;4938218;29;20043;-89
2022/06/17 04:13:14;;;;;;;43.05;10.80;;;;;;;17.86;56.40;99409.50;4922322;29;20046;-89
2022/06/17 04:16:08;;;;;;;27.52;9.43;;;;;;;18.00;55.83;99407.06;4937731;29;20453;-88
2022/06/17 04:18:35;;;;;;;26.23;9.13;;;;;;;18.08;55.37;99400.56;4937550;29;20039;-88
2022/06/17 04:21:05;;;;;;;60.25;10.25;;;;;;;18.20;55.57;99399.59;4938356;29;20529;-91
2022/06/17 04:23:35;;;;;;;31.85;8.60;;;;;;;18.17;56.24;99373.47;4954179;29;20050;-89
2022/06/17 04:26:31;;;;;;;26.23;7.10;;;;;;;18.33;54.26;99397.50;4906501;29;20047;-89
2022/06/17 04:29:05;;;;;;;28.02;7.15;;;;;;;18.36;53.93;99396.78;4922149;29;20039;-89
2022/06/17 04:31:33;;;;;;;22.15;6.13;;;;;;;18.40;53.36;99392.13;4921998;29;20079;-91
2022/06/17 04:34:15;;;;;;;19.27;6.43;;;;;;;18.27;53.85;99372.09;4921772;29;20035;-88
2022/06/17 04:36:58;;;;;;;23.48;5.68;;;;;;;18.32;51.75;99382.88;4934374;29;20039;-89
2022/06/17 04:39:46;;;;;;;24.92;6.05;;;;;;;18.32;52.77;99366.28;4950582;29;20098;-90
2022/06/17 04:42:43;;;;;;;18.98;5.28;;;;;;;18.32;51.42;99349.66;4932733;29;20110;-91
2022/06/17 04:45:24;;;;;;;15.18;5.18;;;;;;;18.42;50.21;99356.59;4935635;29;20134;-90
2022/06/17 04:47:58;;;;;;;19.77;6.03;;;;;;;18.61;51.43;99370.44;4934298;29;20043;-90
2022/06/17 04:50:28;;;;;;;20.20;5.10;;;;;;;18.87;51.43;99400.22;4933552;29;20517;-86
2022/06/17 04:52:55;;;;;;;12.23;4.85;;;;;;;18.90;49.50;99393.94;4933622;29;20144;-84
2022/06/17 04:55:35;;;;;;;13.57;5.10;;;;;;;18.79;50.08;99362.47;4934856;29;20067;-84
2022/06/17 04:58:31;;;;;;;11.77;4.25;;;;;;;18.86;48.23;99368.16;4940173;29;20062;-85
2022/06/17 05:01:01;;;;;;;13.82;5.05;;;;;;;18.87;48.61;99366.97;4952832;29;20049;-85
2022/06/17 05:03:43;;;;;;;15.18;5.15;;;;;;;18.93;49.11;99365.50;4952653;29;20130;-85
2022/06/17 05:06:33;;;;;;;39.78;5.20;;;;;;;19.12;49.64;99392.38;4942821;29;20082;-85
2022/06/17 05:09:30;;;;;;;19.40;4.90;;;;;;;19.22;49.73;99389.00;4952614;29;20125;-85
2022/06/17 05:12:05;;;;;;;19.85;4.63;;;;;;;19.29;49.77;99385.53;4920032;29;20406;-86
2022/06/17 05:14:48;;;;;;;16.42;4.47;;;;;;;19.34;49.61;99396.34;4953767;29;20068;-86
2022/06/17 05:17:15;;;;;;;14.15;4.75;;;;;;;19.39;49.81;99382.16;4952211;29;20035;-86
2022/06/17 05:19:44;;;;;;;8.27;4.22;;;;;;;19.33;47.88;99380.84;4936742;29;20075;-86
2022/06/17 05:22:31;;;;;;;14.00;4.32;;;;;;;19.28;47.28;99367.31;4953585;29;20062;-85
2022/06/17 05:25:04;;;;;;;11.00;4.82;;;;;;;19.54;48.08;99396.28;4952413;29;20516;-86
2022/06/17 05:27:32;;;;;;;23.00;5.00;;;;;;;19.62;48.29;99395.19;4920250;29;20043;-85
2022/06/17 05:29:58;;;;;;;18.98;4.97;;;;;;;19.49;48.31;99366.88;4936432;28;20039;-86
2022/06/17 05:32:31;;;;;;;22.42;5.20;;;;;;;19.69;48.68;99387.03;4939800;29;20043;-86
2022/06/17 05:34:58;;;;;;;23.35;4.93;;;;;;;19.77;48.59;99393.47;4940163;29;20050;-86
2022/06/17 05:37:24;;;;;;;;;;;;;;;19.89;48.96;99382.16;4940773;29;20047;-85
2022/06/17 05:39:55;;;;;;;14.32;5.25;;;;;;;19.77;46.89;99368.50;4955892;28;20060;-87
2022/06/17 05:42:23;;;;;;;19.30;5.55;;;;;;;19.77;47.27;99355.47;4957364;29;20051;-86
2022/06/17 05:44:49;;;;;;;22.80;4.90;;;;;;;19.69;47.20;99340.66;4940160;29;20035;-85
2022/06/17 05:47:36;;;;;;;25.23;5.32;;;;;;;20.03;49.38;99339.94;4956071;29;20405;-85
2022/06/17 05:50:33;;;;;;;28.00;5.90;;;;;;;20.28;47.58;99366.06;4939881;28;20413;-87
2022/06/17 05:53:26;;;;;;;15.55;5.68;;;;;;;20.27;45.87;99358.91;4926580;29;21104;-87
2022/06/17 05:55:55;;;;;;;27.52;5.45;;;;;;;20.52;46.26;99355.66;4955043;29;20051;-86
2022/06/17 05:58:22;;;;;;;18.13;5.60;;;;;;;20.80;46.62;99367.09;4955705;29;20059;-86
2022/06/17 06:00:51;;;;;;;33.47;5.80;;;;;;;21.02;47.26;99359.78;4954275;29;20051;-86
2022/06/17 06:03:21;;;;;;;17.00;5.55;;;;;;;21.33;44.77;99375.16;4937146;29;20039;-84
2022/06/17 06:05:49;;;;;;;21.98;6.82;;;;;;;21.31;45.40;99346.13;4936726;29;20098;-88
2022/06/17 06:08:19;;;;;;;21.38;5.60;;;;;;;21.35;44.12;99378.38;4951178;29;20035;-85
2022/06/17 06:10:47;;;;;;;16.33;5.70;;;;;;;21.18;43.72;99336.50;4937897;29;20039;-87
2022/06/17 06:13:22;;;;;;;17.83;5.90;;;;;;;21.40;44.39;99360.56;4937590;29;20047;-87
2022/06/17 06:15:54;;;;;;;15.93;5.32;;;;;;;21.35;45.60;99361.69;4954788;29;20050;-86
2022/06/17 06:18:32;;;;;;;18.25;5.68;;;;;;;21.34;44.15;99337.03;4953623;29;20043;-85
2022/06/17 06:21:04;;;;;;;28.75;5.43;;;;;;;21.33;44.40;99347.38;4953138;29;20054;-85
2022/06/17 06:23:38;;;;;;;20.00;5.95;;;;;;;21.11;43.69;99312.22;4952328;29;20050;-87
2022/06/17 06:26:08;;;;;;;17.92;4.38;;;;;;;21.39;43.59;99363.72;4952423;29;20047;-87
2022/06/17 06:28:36;;;;;;;14.20;4.40;;;;;;;21.44;42.85;99355.81;4935801;29;20421;-87
2022/06/17 06:31:38;;;;;;;30.13;4.53;;;;;;;21.44;43.89;99357.81;4948328;29;20083;-87
2022/06/17 06:34:31;;;;;;;14.48;4.25;;;;;;;21.51;44.31;99339.19;4948688;29;20054;-85
2022/06/17 06:36:57;;;;;;;14.68;4.68;;;;;;;21.45;44.24;99342.69;4952565;29;20071;-86
2022/06/17 06:39:23;;;;;;;20.27;5.53;;;;;;;21.38;42.06;99340.66;4951813;29;20094;-85
2022/06/17 06:41:53;;;;;;;28.42;5.10;;;;;;;21.10;42.42;99313.41;4952246;28;20074;-85
2022/06/17 06:44:21;;;;;;;27.10;4.93;;;;;;;21.47;42.85;99340.34;4950635;29;20500;-84
2022/06/17 06:47:05;;;;;;;29.85;4.85;;;;;;;21.48;42.82;99348.28;4950949;29;20047;-87
2022/06/17 06:49:56;;;;;;;8.20;4.40;;;;;;;21.20;41.32;99309.91;4925770;29;20129;-87
2022/06/17 06:52:25;;;;;;;34.60;5.00;;;;;;;21.38;43.65;99345.44;4930775;29;20048;-87
2022/06/17 06:54:52;;;;;;;40.13;5.57;;;;;;;21.51;43.29;99338.38;4914461;29;20576;-87
2022/06/17 06:57:19;;;;;;;52.75;5.82;;;;;;;21.62;41.33;99349.59;4930317;29;20051;-88
2022/06/17 06:59:46;;;;;;;16.73;4.50;;;;;;;21.52;41.23;99334.41;4929914;29;20055;-87
2022/06/17 07:02:12;;;;;;;66.85;6.13;;;;;;;21.62;42.39;99338.44;4949191;29;20047;-86
2022/06/17 07:04:40;;;;;;;21.42;4.63;;;;;;;21.67;42.19;99341.69;4940357;29;20276;-87
2022/06/17 07:07:06;;;;;;;24.35;5.05;;;;;;;21.49;40.80;99313.75;4930684;29;20039;-85
2022/06/17 07:09:33;;;;;;;35.30;5.03;;;;;;;21.35;41.55;99322.75;4929359;29;20461;-85
2022/06/17 07:12:01;;;;;;;20.05;5.30;;;;;;;21.09;41.46;99307.06;4927292;29;20389;-85
2022/06/17 07:14:27;;;;;;;16.52;5.85;;;;;;;21.34;42.32;99337.03;4949003;29;20047;-84
2022/06/17 07:16:53;;;;;;;39.92;8.00;;;;;;;21.54;43.61;99330.06;4949185;29;20548;-87
2022/06/17 07:19:19;;;;;;;257.47;38.90;;;;;;;21.74;42.57;99336.16;4948984;29;20046;-85
2022/06/17 07:21:48;;;;;;;184.75;28.33;;;;;;;21.82;41.70;99323.09;4948249;29;20298;-84
2022/06/17 07:24:15;;;;;;;128.93;19.33;;;;;;;21.83;41.17;99327.47;4931055;29;20571;-87
2022/06/17 07:26:42;;;;;;;15.93;5.47;;;;;;;21.64;40.07;99286.03;4930918;29;20631;-86
2022/06/17 07:29:08;;;;;;;101.90;16.58;;;;;;;21.81;40.51;99305.59;4930569;29;20094;-85
2022/06/17 07:31:34;;;;;;;24.08;7.38;;;;;;;22.14;41.72;99339.16;4947647;29;20567;-85
2022/06/17 07:34:00;;;;;;;15.00;5.82;;;;;;;21.78;40.93;99288.88;4947059;29;20047;-86
2022/06/17 07:42:03;;;;;;;19.30;5.78;;;;;;;22.25;40.86;99335.28;4944443;29;20075;-85
2022/06/17 07:44:29;;;;;;;52.42;10.43;;;;;;;22.34;41.23;99336.91;4928427;29;20632;-87
2022/06/17 07:46:57;;;;;;;34.28;7.07;;;;;;;22.43;40.26;99323.41;4928989;29;20416;-86
2022/06/17 07:49:23;;;;;;;38.33;7.70;;;;;;;22.67;40.21;99325.47;4945938;29;20066;-84
2022/06/17 07:51:49;;;;;;;20.00;6.47;;;;;;;22.54;39.17;99301.16;4945726;29;20046;-88
2022/06/17 07:54:16;;;;;;;19.85;4.82;;;;;;;22.55;38.08;99311.91;4944456;28;20098;-83
2022/06/17 07:56:43;;;;;;;16.50;6.78;;;;;;;22.64;38.53;99308.75;4944129;29;20608;-83
2022/06/17 07:59:11;;;;;;;87.80;19.10;;;;;;;22.63;37.69;99321.09;4907141;29;20044;-86
2022/06/17 08:01:38;;;;;;;85.72;20.20;;;;;;;22.71;38.54;99311.53;4906093;29;20043;-85
2022/06/17 08:04:04;;;;;;;64.72;15.73;;;;;;;22.95;38.76;99321.19;4906304;29;20519;-88
2022/06/17 08:06:31;;;;;;;21.00;7.07;;;;;;;23.13;38.73;99318.41;4906307;29;20047;-87
2022/06/17 08:08:58;;;;;;;40.88;9.27;;;;;;;23.17;39.72;99292.09;4920708;29;20081;-83
2022/06/17 08:11:26;;;;;;;40.88;7.22;;;;;;;23.17;38.88;99317.19;4905296;29;20073;-85
2022/06/17 08:13:52;;;;;;;37.50;10.70;;;;;;;23.04;38.76;99318.00;4905581;29;20478;-85
2022/06/17 08:16:19;;;;;;;20.38;6.18;;;;;;;22.76;38.31;99313.94;4904943;29;20548;-85
2022/06/17 08:18:46;;;;;;;35.95;9.80;;;;;;;22.32;39.60;99273.25;4904532;29;20040;-84
2022/06/17 08:21:14;;;;;;;27.33;7.25;;;;;;;22.55;39.88;99317.50;4902172;29;20063;-84
2022/06/17 08:23:40;;;;;;;40.40;9.35;;;;;;;22.35;41.27;99288.34;4903716;29;20414;-85
2022/06/17 08:26:08;;;;;;;34.67;6.80;;;;;;;22.50;41.79;99315.88;4904502;29;21058;-85
2022/06/17 08:28:34;;;;;;;17.60;5.70;;;;;;;22.34;40.16;99295.13;4903232;29;20040;-84
2022/06/17 08:31:01;;;;;;;34.10;8.75;;;;;;;22.60;41.23;99313.50;4904391;29;20042;-85
2022/06/17 08:33:29;;;;;;;39.78;12.02;;;;;;;22.44;41.56;99281.22;4902867;29;20494;-86
2022/06/17 08:36:00;;;;;;;21.33;5.93;;;;;;;22.38;41.70;99254.16;4902894;29;20067;-84
2022/06/17 08:38:31;;;;;;;40.22;11.20;;;;;;;22.78;41.80;99314.38;4902239;29;20104;-85
2022/06/17 08:41:07;;;;;;;22.17;7.00;;;;;;;22.50;40.90;99264.94;4917568;29;20108;-84
2022/06/17 08:43:55;;;;;;;17.90;6.03;;;;;;;22.81;40.79;99293.25;4899129;29;20054;-84
2022/06/17 08:46:54;;;;;;;27.92;7.32;;;;;;;22.88;41.32;99304.41;4902904;29;20047;-85
2022/06/17 08:49:46;;;;;;;25.45;6.72;;;;;;;22.82;40.32;99301.22;4901535;29;20410;-84
2022/06/17 08:52:14;;;;;;;44.15;10.10;;;;;;;22.81;40.78;99299.59;4903118;29;20588;-88
2022/06/17 08:55:18;;;;;;;42.33;9.47;;;;;;;22.77;40.76;99314.75;4902126;29;20044;-85
2022/06/17 08:57:59;;;;;;;39.30;10.57;;;;;;;22.62;42.15;99308.34;4888116;29;20075;-83
2022/06/17 09:01:04;;;;;;;67.53;14.27;;;;;;;22.63;43.00;99310.72;4918438;29;20090;-87
2022/06/17 09:04:15;;;;;;;77.65;17.73;;;;;;;22.29;40.41;99285.19;4919316;29;20539;-83
2022/06/17 09:07:00;;;;;;;41.83;7.40;;;;;;;22.38;41.37;99312.63;4917910;29;20164;-83
2022/06/17 09:09:56;;;;;;;52.28;12.75;;;;;;;22.32;41.85;99305.84;4919429;29;20048;-84
2022/06/17 09:13:15;;;;;;;28.73;8.88;;;;;;;22.38;42.75;99309.84;4919018;29;20187;-84
2022/06/17 09:15:47;;;;;;;41.50;11.25;;;;;;;22.26;42.48;99309.03;4852893;29;20055;-85
2022/06/17 09:18:29;;;;;;;56.70;10.85;;;;;;;22.01;41.15;99297.75;4905114;29;20052;-83
2022/06/17 09:21:14;;;;;;;35.58;6.05;;;;;;;21.81;39.26;99311.16;4919227;29;20118;-84
2022/06/17 09:23:41;;;;;;;33.30;5.82;;;;;;;21.58;41.71;99330.09;4918913;29;20044;-85
2022/06/17 09:26:23;;;;;;;37.40;7.82;;;;;;;21.21;44.36;99328.19;4919027;29;20083;-84
2022/06/17 09:28:58;;;;;;;55.17;10.60;;;;;;;20.88;46.82;99337.41;4918094;29;20048;-85
2022/06/17 09:31:35;;;;;;;34.88;7.35;;;;;;;20.57;49.89;99341.47;4918560;29;20090;-84
2022/06/17 09:34:06;;;;;;;45.78;7.72;;;;;;;20.14;51.30;99329.81;4917996;29;20050;-84
2022/06/17 09:36:41;;;;;;;25.95;5.97;;;;;;;19.89;52.83;99316.38;4917854;29;20054;-85
2022/06/17 09:39:17;;;;;;;30.65;5.70;;;;;;;19.90;53.28;99329.09;4916927;29;20043;-85
2022/06/17 09:42:02;;;;;;;15.07;5.03;;;;;;;19.98;54.48;99343.84;4917412;29;20055;-84
2022/06/17 09:45:02;;;;;;;39.88;9.02;;;;;;;20.49;53.12;99353.63;4900882;29;20055;-92
2022/06/17 09:47:47;;;;;;;14.50;5.07;;;;;;;20.62;53.35;99347.44;4884147;29;20127;-91
2022/06/17 09:50:37;;;;;;;21.30;6.65;;;;;;;20.77;54.57;99325.41;4899281;29;20135;-91
2022/06/17 09:53:12;;;;;;;19.23;7.05;;;;;;;20.96;52.70;99336.31;4916871;29;20255;-90
2022/06/17 09:55:46;;;;;;;33.60;7.65;;;;;;;21.27;51.62;99356.44;4932817;29;20079;-87
2022/06/17 09:58:25;;;;;;;16.80;5.03;;;;;;;21.40;49.98;99341.09;4924664;29;20304;-86
2022/06/17 10:00:55;;;;;;;32.78;6.32;;;;;;;21.47;50.61;99345.91;4916676;29;20042;-82
2022/06/17 10:03:27;;;;;;;26.17;7.93;;;;;;;21.55;49.57;99341.97;4922427;29;20044;-82
2022/06/17 10:06:12;;;;;;;21.00;6.70;;;;;;;21.63;51.10;99340.88;4925873;29;20055;-84
2022/06/17 10:09:03;;;;;;;21.55;6.93;;;;;;;21.76;50.65;99342.16;4925749;29;20122;-81
2022/06/17 10:11:38;;;;;;;24.77;6.40;;;;;;;21.74;50.33;99344.50;4932099;29;20043;-82
2022/06/17 10:14:13;;;;;;;28.05;9.00;;;;;;;21.61;51.57;99337.66;4932376;29;20047;-84
2022/06/17 10:20:02;;;;;;;14.02;5.78;;;;;;;21.94;51.44;99336.69;4925934;29;20043;-83
2022/06/17 10:22:37;;;;;;;29.63;7.57;;;;;;;22.18;51.25;99329.66;4918543;29;20058;-83
2022/06/17 10:25:58;;;;;;;21.13;6.63;;;;;;;22.27;49.70;99327.31;4917472;29;20039;-82
2022/06/17 10:28:45;;;;;;;19.50;6.68;;;;;;;22.26;50.38;99297.09;4921839;29;20174;-83
2022/06/17 10:31:43;;;;;;;24.00;7.00;;;;;;;22.52;50.06;99315.50;4935533;28;20840;-81
2022/06/17 10:34:33;;;;;;;34.40;6.78;;;;;;;22.63;49.13;99302.38;4936181;29;20048;-80
2022/06/17 10:37:04;;;;;;;27.73;8.18;;;;;;;22.77;49.21;99295.22;4949088;29;20102;-81
2022/06/17 10:39:37;;;;;;;14.30;6.32;;;;;;;22.75;47.55;99295.66;4952504;29;20070;-82
2022/06/17 10:42:07;;;;;;;15.95;6.22;;;;;;;22.75;49.09;99281.72;4946045;29;20125;-91
2022/06/17 10:44:34;;;;;;;16.58;6.13;;;;;;;22.99;48.65;99282.94;4950948;29;20101;-86
2022/06/17 10:47:22;;;;;;;12.05;5.72;;;;;;;23.23;46.75;99286.13;4946233;29;20038;-86
2022/06/17 10:49:59;;;;;;;13.50;6.32;;;;;;;22.94;45.90;99272.19;4953036;29;20043;-80
2022/06/17 10:52:42;;;;;;;16.70;6.32;;;;;;;22.68;46.04;99285.28;4953945;29;20054;-83
2022/06/17 10:55:17;;;;;;;14.88;5.68;;;;;;;22.45;46.99;99282.03;4941737;29;20050;-87
2022/06/17 10:58:08;;;;;;;17.15;6.20;;;;;;;22.34;47.37;99282.00;4952293;29;20066;-86
2022/06/17 11:00:50;;;;;;;17.95;5.78;;;;;;;22.22;47.81;99274.00;4954327;29;20039;-81
2022/06/17 11:03:30;;;;;;;18.95;6.88;;;;;;;22.18;47.89;99268.41;4949030;29;20042;-81
2022/06/17 11:06:05;;;;;;;13.82;6.18;;;;;;;22.33;49.81;99277.63;4949711;29;20129;-80
2022/06/17 11:08:53;;;;;;;17.05;6.75;;;;;;;22.31;50.74;99282.78;4958608;29;20038;-80
2022/06/17 11:14:23;;;;;;;13.82;7.05;;;;;;;22.35;49.49;99282.78;4954003;29;20036;-87
2022/06/17 11:16:52;;;;;;;14.63;6.95;;;;;;;22.23;48.08;99253.31;4958384;29;20042;-81
2022/06/17 11:19:21;;;;;;;21.80;6.70;;;;;;;22.71;48.94;99278.09;4940349;29;20050;-83
2022/06/17 11:21:53;;;;;;;25.48;8.20;;;;;;;23.18;48.99;99274.19;4946950;29;20054;-82
2022/06/17 11:24:35;;;;;;;15.82;6.72;;;;;;;23.23;46.00;99244.31;4949609;29;20042;-84
2022/06/17 11:27:28;;;;;;;34.22;6.88;;;;;;;23.76;46.73;99265.75;4938737;29;20032;-83
2022/06/17 11:30:21;;;;;;;15.00;6.97;;;;;;;24.02;45.59;99247.72;4937702;29;20035;-82
2022/06/17 11:32:48;;;;;;;18.88;6.65;;;;;;;24.11;43.92;99240.47;4955400;29;20043;-84
2022/06/17 11:35:24;;;;;;;15.63;6.47;;;;;;;24.24;43.69;99242.81;4948436;28;20047;-82
2022/06/17 11:37:54;;;;;;;28.33;7.00;;;;;;;24.32;43.72;99233.19;4947421;29;20039;-89
2022/06/17 11:40:23;;;;;;;10.80;5.50;;;;;;;24.38;41.77;99242.75;4950493;29;20035;-88
2022/06/17 11:42:54;;;;;;;20.27;6.43;;;;;;;24.40;43.40;99226.34;4947493;29;20042;-86
2022/06/17 11:45:30;;;;;;;12.23;6.13;;;;;;;24.35;40.77;99219.19;4943571;29;20066;-83
2022/06/17 11:48:21;;;;;;;13.00;5.63;;;;;;;24.80;41.34;99238.91;4937623;29;20074;-84
2022/06/17 11:51:07;;;;;;;16.60;5.70;;;;;;;24.66;41.04;99246.56;4947797;29;20453;-83
2022/06/17 11:53:43;;;;;;;;;;;;;;;24.35;40.91;99240.75;4946496;29;20510;-85
2022/06/17 11:56:10;;;;;;;19.00;6.27;;;;;;;24.04;42.99;99226.56;4944690;29;19922;-82
2022/06/17 11:58:57;;;;;;;19.25;6.78;;;;;;;23.60;41.56;99213.91;4948924;29;20395;-81
2022/06/17 12:01:24;;;;;;;13.38;6.05;;;;;;;23.30;42.22;99219.97;4939298;29;20058;-83
2022/06/17 12:03:50;;;;;;;12.98;6.15;;;;;;;23.17;43.33;99255.84;4945870;29;20032;-82
2022/06/17 12:06:29;;;;;;;38.50;9.73;;;;;;;22.58;47.55;99280.47;4933909;29;20055;-84
2022/06/17 12:09:05;;;;;;;25.92;7.68;;;;;;;21.86;50.56;99296.09;4916445;29;20509;-83
2022/06/17 12:11:52;;;;;;;73.85;13.98;;;;;;;20.61;56.71;99295.88;4921433;29;20052;-83
2022/06/17 12:14:32;;;;;;;;;;;;;;;19.59;61.44;99321.06;4922222;29;20083;-83
2022/06/17 12:17:00;;;;;;;51.03;8.77;;;;;;;18.34;60.44;99246.91;4932094;29;19930;-79